Terminal Aerodrome Forecast
Issued by NWS Wilmington, OH

Current Version | Previous Version | Graphics & Text | Print | Product List | Glossary On
Versions: 1 2 3 4 5 6 7 8 9 10 11 12 13 14 15
000
FTUS41 KILN 300540
TAFILN
TAF
KILN 300540Z 3006/3106 22008KT P6SM VCSH SCT040 BKN200
     FM300800 19005KT P6SM SCT030 BKN200
      TEMPO 3010/3012 5SM BR
     FM301400 22009KT P6SM BKN040
     FM302000 21007KT P6SM VCSH BKN040
     FM310000 22005KT P6SM SCT035 SCT200=

USA.gov is the U.S. government's official web portal to all federal, state and local government web resources and services.